createdAt,value
2022-10-22T00:01:03.022Z,100256.41
2022-10-22T00:03:29.585Z,100253.91
2022-10-22T00:05:56.159Z,100230.97
2022-10-22T00:08:22.720Z,100225.78
2022-10-22T00:10:49.197Z,100247.69
2022-10-22T00:13:16.017Z,100226.97
2022-10-22T00:15:42.625Z,100289.09
2022-10-22T00:18:09.164Z,100286.28
2022-10-22T00:20:35.660Z,100279.38
2022-10-22T00:23:02.093Z,100285.56
2022-10-22T00:25:28.557Z,100295.81
2022-10-22T00:27:55.049Z,100268.75
2022-10-22T00:30:21.560Z,100233.69
2022-10-22T00:32:48.033Z,100272.97
2022-10-22T00:35:14.572Z,100274.88
2022-10-22T00:37:41.042Z,100303.16
2022-10-22T00:40:08.375Z,100294.63
2022-10-22T00:42:35.085Z,100287.59
2022-10-22T00:45:10.824Z,100281.03
2022-10-22T00:47:51.346Z,100240.00
2022-10-22T00:50:22.319Z,100286.72
2022-10-22T00:52:49.603Z,100242.00
2022-10-22T00:55:16.228Z,100287.41
2022-10-22T00:57:42.938Z,100261.22
2022-10-22T01:00:10.237Z,100292.72
2022-10-22T01:02:36.836Z,100262.78
2022-10-22T01:05:04.416Z,100285.63
2022-10-22T01:07:31.201Z,100291.66
2022-10-22T01:10:03.837Z,100294.84
2022-10-22T01:12:42.474Z,100285.44
2022-10-22T01:15:15.264Z,100289.50
2022-10-22T01:17:50.864Z,100282.44
2022-10-22T01:20:31.109Z,100283.31
2022-10-22T01:23:19.032Z,100280.09
2022-10-22T01:25:54.334Z,100275.91
2022-10-22T01:28:27.807Z,100280.41
2022-10-22T01:30:55.836Z,100268.72
2022-10-22T01:33:23.149Z,100275.91
2022-10-22T01:35:50.402Z,100224.63
2022-10-22T01:38:19.645Z,100258.06
2022-10-22T01:40:47.446Z,100269.16
2022-10-22T01:43:14.343Z,100238.69
2022-10-22T01:46:01.801Z,100268.22
2022-10-22T01:48:53.202Z,100276.06
2022-10-22T01:51:34.126Z,100265.97
2022-10-22T01:54:26.984Z,100253.09
2022-10-22T01:57:21.534Z,100252.03
2022-10-22T02:00:07.408Z,100245.38
2022-10-22T02:02:43.156Z,100239.75
2022-10-22T02:05:09.655Z,100244.03
2022-10-22T02:07:42.071Z,100240.38
2022-10-22T02:10:09.558Z,100232.22
2022-10-22T02:12:37.621Z,100234.25
2022-10-22T02:15:05.038Z,100213.22
2022-10-22T02:17:33.326Z,100169.06
2022-10-22T02:20:04.266Z,100223.72
2022-10-22T02:22:30.808Z,100242.72
2022-10-22T02:24:57.328Z,100251.13
2022-10-22T02:27:26.987Z,100255.69
2022-10-22T02:30:07.561Z,100262.59
2022-10-22T02:32:57.980Z,100254.16
2022-10-22T02:35:26.258Z,100259.00
2022-10-22T02:37:54.543Z,100224.13
2022-10-22T02:40:21.319Z,100259.25
2022-10-22T02:42:49.714Z,100261.94
2022-10-22T02:45:17.663Z,100230.97
2022-10-22T02:47:44.287Z,100264.03
2022-10-22T02:50:10.733Z,100270.91
2022-10-22T02:52:37.863Z,100270.50
2022-10-22T02:55:05.581Z,100271.91
2022-10-22T02:57:32.715Z,100266.72
2022-10-22T02:59:59.306Z,100244.34
2022-10-22T03:02:25.823Z,100244.50
2022-10-22T03:04:52.237Z,100234.94
2022-10-22T03:07:18.715Z,100243.06
2022-10-22T03:09:45.262Z,100267.25
2022-10-22T03:12:11.691Z,100265.47
2022-10-22T03:14:38.134Z,100239.28
2022-10-22T03:17:04.887Z,100225.28
2022-10-22T03:19:31.465Z,100261.88
2022-10-22T03:22:11.942Z,100256.78
2022-10-22T03:24:41.475Z,100273.22
2022-10-22T03:27:08.831Z,100269.53
2022-10-22T03:29:37.689Z,100281.56
2022-10-22T03:32:04.340Z,100279.56
2022-10-22T03:34:30.844Z,100274.88
2022-10-22T03:36:59.119Z,100244.56
2022-10-22T03:39:26.100Z,100286.25
2022-10-22T03:41:53.015Z,100287.59
2022-10-22T03:44:20.446Z,100284.25
2022-10-22T03:46:46.874Z,100241.56
2022-10-22T03:49:13.324Z,100250.13
2022-10-22T03:51:39.788Z,100256.50
2022-10-22T03:54:06.449Z,100284.44
2022-10-22T03:56:33.151Z,100288.63
2022-10-22T03:59:01.003Z,100298.63
2022-10-22T04:01:29.457Z,100294.94
2022-10-22T04:03:56.433Z,100308.50
2022-10-22T04:06:23.051Z,100263.13
2022-10-22T04:08:49.709Z,100291.59
2022-10-22T04:11:16.749Z,100308.34
2022-10-22T04:13:43.669Z,100257.84
2022-10-22T04:16:16.241Z,100305.50
2022-10-22T04:18:43.923Z,100307.34
2022-10-22T04:21:11.926Z,100307.63
2022-10-22T04:23:38.385Z,100280.63
2022-10-22T04:26:07.119Z,100308.97
2022-10-22T04:28:35.053Z,100312.13
2022-10-22T04:31:07.730Z,100267.53
2022-10-22T04:33:34.290Z,100313.50
2022-10-22T04:36:00.803Z,100313.38
2022-10-22T04:38:27.252Z,100312.69
2022-10-22T04:40:53.774Z,100228.88
2022-10-22T04:43:20.195Z,100322.38
2022-10-22T04:45:46.688Z,100316.19
2022-10-22T04:48:13.218Z,100319.72
2022-10-22T04:50:39.635Z,100303.69
2022-10-22T04:53:06.084Z,100322.28
2022-10-22T04:55:32.696Z,100285.50
2022-10-22T04:57:59.154Z,100306.53
2022-10-22T05:00:25.826Z,100316.72
2022-10-22T05:02:59.994Z,100319.25
2022-10-22T05:05:26.585Z,100293.59
2022-10-22T05:07:53.078Z,100274.00
2022-10-22T05:10:19.495Z,100315.56
2022-10-22T05:12:45.995Z,100286.41
2022-10-22T05:15:12.442Z,100328.63
2022-10-22T05:17:39.388Z,100313.59
2022-10-22T05:20:06.564Z,100250.41
2022-10-22T05:22:34.752Z,100327.25
2022-10-22T05:25:01.224Z,100330.50
2022-10-22T05:27:27.719Z,100333.44
2022-10-22T05:29:54.144Z,100341.69
2022-10-22T05:32:20.712Z,100297.16
2022-10-22T05:34:47.195Z,100342.84
2022-10-22T05:37:13.650Z,100355.63
2022-10-22T05:39:41.631Z,100312.66
2022-10-22T05:42:08.126Z,100323.25
2022-10-22T05:44:37.281Z,100327.41
2022-10-22T05:47:03.762Z,100352.06
2022-10-22T05:49:30.206Z,100347.38
2022-10-22T05:51:56.613Z,100356.09
2022-10-22T05:54:23.110Z,100360.94
2022-10-22T05:56:49.589Z,100357.25
2022-10-22T05:59:16.018Z,100360.56
2022-10-22T06:01:42.551Z,100366.06
2022-10-22T06:04:11.999Z,100368.03
2022-10-22T06:06:43.400Z,100337.09
2022-10-22T06:09:12.933Z,100378.69
2022-10-22T06:11:39.497Z,100366.69
2022-10-22T06:14:06.001Z,100389.59
2022-10-22T06:16:32.618Z,100350.38
2022-10-22T06:19:01.916Z,100384.09
2022-10-22T06:21:28.891Z,100368.31
2022-10-22T06:23:56.650Z,100350.38
2022-10-22T06:26:23.582Z,100352.69
2022-10-22T06:28:50.027Z,100363.81
2022-10-22T06:31:16.487Z,100399.84
2022-10-22T06:33:43.368Z,100403.97
2022-10-22T06:36:18.423Z,100409.47
2022-10-22T06:38:44.909Z,100404.50
2022-10-22T06:41:14.393Z,100410.25
2022-10-22T06:43:41.991Z,100381.81
2022-10-22T06:46:09.945Z,100408.03
2022-10-22T06:48:37.955Z,100385.47
2022-10-22T06:51:09.458Z,100428.63
2022-10-22T06:53:36.862Z,100435.81
2022-10-22T06:56:07.887Z,100434.66
2022-10-22T06:58:34.534Z,100448.63
2022-10-22T07:01:05.939Z,100435.50
2022-10-22T07:03:32.427Z,100397.91
2022-10-22T07:06:00.910Z,100416.19
2022-10-22T07:08:27.454Z,100456.78
2022-10-22T07:10:54.084Z,100429.06
2022-10-22T07:13:20.698Z,100453.97
2022-10-22T07:15:53.633Z,100413.09
2022-10-22T07:18:20.239Z,100462.69
2022-10-22T07:20:47.921Z,100456.28
2022-10-22T07:23:14.889Z,100473.13
2022-10-22T07:25:41.633Z,100475.09
2022-10-22T07:28:08.526Z,100440.75
2022-10-22T07:30:37.169Z,100486.28
2022-10-22T07:33:04.086Z,100489.66
2022-10-22T07:35:31.165Z,100489.25
2022-10-22T07:37:57.794Z,100446.75
2022-10-22T07:40:24.323Z,100479.25
2022-10-22T07:42:50.805Z,100471.72
2022-10-22T07:45:17.433Z,100458.19
2022-10-22T07:47:43.935Z,100480.63
2022-10-22T07:50:10.654Z,100461.91
2022-10-22T07:52:37.066Z,100501.72
2022-10-22T07:55:03.893Z,100509.59
2022-10-22T07:57:30.323Z,100508.78
2022-10-22T07:59:58.095Z,100516.66
2022-10-22T08:02:25.214Z,100513.44
2022-10-22T08:04:51.984Z,100494.00
2022-10-22T08:07:19.065Z,100522.53
2022-10-22T08:09:45.692Z,100517.72
2022-10-22T08:12:12.161Z,100525.13
2022-10-22T08:14:38.803Z,100503.09
2022-10-22T08:17:05.305Z,100527.59
2022-10-22T08:19:32.493Z,100534.19
2022-10-22T08:21:59.803Z,100515.03
2022-10-22T08:24:27.042Z,100523.72
2022-10-22T08:26:56.864Z,100493.97
2022-10-22T08:29:24.349Z,100528.66
2022-10-22T08:31:51.304Z,100504.06
2022-10-22T08:34:17.816Z,100538.13
2022-10-22T08:36:44.300Z,100530.75
2022-10-22T08:39:10.819Z,100529.69
2022-10-22T08:41:58.428Z,100543.28
2022-10-22T08:44:30.928Z,100542.41
2022-10-22T08:47:18.598Z,100545.25
2022-10-22T08:49:47.916Z,100526.28
2022-10-22T08:52:17.512Z,100547.22
2022-10-22T08:54:58.677Z,100562.44
2022-10-22T08:57:52.136Z,100546.88
2022-10-22T09:00:26.027Z,100565.22
2022-10-22T09:03:01.316Z,100577.56
2022-10-22T09:06:03.273Z,100569.44
2022-10-22T09:08:30.202Z,100584.31
2022-10-22T09:11:02.779Z,100573.22
2022-10-22T09:13:29.506Z,100579.59
2022-10-22T09:16:01.938Z,100580.00
2022-10-22T09:18:39.561Z,100571.31
2022-10-22T09:21:18.054Z,100581.41
2022-10-22T09:24:03.448Z,100594.94
2022-10-22T09:26:32.472Z,100585.97
2022-10-22T09:29:00.336Z,100560.00
2022-10-22T09:31:28.276Z,100586.28
2022-10-22T09:33:54.763Z,100572.13
2022-10-22T09:36:22.814Z,100587.81
2022-10-22T09:38:52.173Z,100610.00
2022-10-22T09:41:20.438Z,100600.50
2022-10-22T09:43:47.892Z,100606.69
2022-10-22T09:46:20.238Z,100555.22
2022-10-22T09:49:23.842Z,100610.53
2022-10-22T09:52:00.510Z,100617.91
2022-10-22T09:54:33.033Z,100614.97
2022-10-22T09:57:16.609Z,100618.53
2022-10-22T09:59:44.553Z,100624.16
2022-10-22T10:02:20.246Z,100633.06
2022-10-22T10:04:55.876Z,100647.69
2022-10-22T10:07:28.754Z,100625.94
2022-10-22T10:09:55.256Z,100592.13
2022-10-22T10:12:37.017Z,100646.16
2022-10-22T10:15:28.218Z,100647.81
2022-10-22T10:17:57.686Z,100643.28
2022-10-22T10:20:29.924Z,100643.41
2022-10-22T10:23:08.445Z,100653.91
2022-10-22T10:25:45.388Z,100653.00
2022-10-22T10:28:18.002Z,100644.38
2022-10-22T10:30:59.865Z,100621.22
2022-10-22T10:33:32.365Z,100637.56
2022-10-22T10:36:09.728Z,100651.25
2022-10-22T10:38:51.765Z,100649.69
2022-10-22T10:41:31.468Z,100646.81
2022-10-22T10:44:10.133Z,100653.19
2022-10-22T10:47:11.314Z,100655.41
2022-10-22T10:49:38.008Z,100636.13
2022-10-22T10:52:21.292Z,100661.56
2022-10-22T10:55:16.346Z,100621.59
2022-10-22T10:57:54.892Z,100655.41
2022-10-22T11:00:22.474Z,100657.78
2022-10-22T11:03:04.002Z,100659.81
2022-10-22T11:05:44.202Z,100665.63
2022-10-22T11:08:27.594Z,100668.22
2022-10-22T11:14:02.163Z,100645.59
2022-10-22T11:16:54.146Z,100685.63
2022-10-22T11:19:22.781Z,100680.53
2022-10-22T11:22:06.763Z,100682.31
2022-10-22T11:24:43.082Z,100683.41
2022-10-22T11:27:46.750Z,100681.66
2022-10-22T11:30:18.875Z,100678.47
2022-10-22T11:33:00.737Z,100637.28
2022-10-22T11:35:31.998Z,100621.78
2022-10-22T11:37:59.057Z,100636.59
2022-10-22T11:40:28.629Z,100690.06
2022-10-22T11:42:58.119Z,100685.06
2022-10-22T11:45:24.533Z,100668.31
2022-10-22T11:48:07.066Z,100669.59
2022-10-22T11:51:27.412Z,100653.16
2022-10-22T11:53:58.059Z,100679.28
2022-10-22T11:56:26.270Z,100670.53
2022-10-22T11:58:54.999Z,100674.13
2022-10-22T12:01:23.442Z,100655.63
2022-10-22T12:04:21.968Z,100668.75
2022-10-22T12:07:00.268Z,100672.50
2022-10-22T12:09:30.188Z,100670.06
2022-10-22T12:12:04.197Z,100626.03
2022-10-22T12:14:52.479Z,100672.47
2022-10-22T12:17:20.727Z,100673.50
2022-10-22T12:19:50.068Z,100669.34
2022-10-22T12:22:23.207Z,100663.69
2022-10-22T12:24:54.523Z,100668.94
2022-10-22T12:27:22.850Z,100674.50
2022-10-22T12:29:54.398Z,100646.63
2022-10-22T12:32:20.844Z,100627.84
2022-10-22T12:37:21.099Z,100643.69
2022-10-22T12:39:47.647Z,100626.94
2022-10-22T12:42:16.513Z,100664.53
2022-10-22T12:44:46.122Z,100656.03
2022-10-22T12:47:16.790Z,100666.16
2022-10-22T12:49:46.997Z,100630.16
2022-10-22T12:52:17.634Z,100671.56
2022-10-22T12:54:45.619Z,100666.88
2022-10-22T12:57:17.691Z,100635.84
2022-10-22T12:59:49.801Z,100656.78
2022-10-22T13:02:25.035Z,100676.66
2022-10-22T13:05:27.943Z,100664.72
2022-10-22T13:08:03.317Z,100661.41
2022-10-22T13:10:38.987Z,100626.72
2022-10-22T13:13:06.951Z,100661.13
2022-10-22T13:15:36.374Z,100674.25
2022-10-22T13:18:03.430Z,100658.84
2022-10-22T13:20:29.979Z,100674.16
2022-10-22T13:23:01.154Z,100637.00
2022-10-22T13:25:31.569Z,100662.84
2022-10-22T13:28:04.018Z,100671.94
2022-10-22T13:30:33.884Z,100671.38
2022-10-22T13:33:07.271Z,100665.88
2022-10-22T13:35:37.722Z,100670.75
2022-10-22T13:38:18.419Z,100663.63
2022-10-22T13:40:45.094Z,100653.06
2022-10-22T13:43:11.534Z,100667.25
2022-10-22T13:45:38.096Z,100645.53
2022-10-22T13:48:04.974Z,100670.06
2022-10-22T13:50:31.623Z,100681.09
2022-10-22T13:52:58.576Z,100658.50
2022-10-22T13:55:27.332Z,100694.50
2022-10-22T14:00:51.887Z,100680.16
2022-10-22T14:03:22.023Z,100676.94
2022-10-22T14:05:49.018Z,100688.13
2022-10-22T14:08:17.903Z,100691.63
2022-10-22T14:10:44.700Z,100699.44
2022-10-22T14:13:12.240Z,100682.09
2022-10-22T14:15:38.728Z,100707.47
2022-10-22T14:18:06.802Z,100677.63
2022-10-22T14:20:35.710Z,100708.00
2022-10-22T14:23:13.951Z,100703.19
2022-10-22T14:25:40.969Z,100713.81
2022-10-22T14:28:09.436Z,100711.91
2022-10-22T14:30:36.039Z,100723.97
2022-10-22T14:33:02.543Z,100713.72
2022-10-22T14:35:29.018Z,100680.16
2022-10-22T14:37:58.437Z,100723.25
2022-10-22T14:40:25.454Z,100686.34
2022-10-22T14:42:52.601Z,100710.34
2022-10-22T14:45:24.851Z,100726.81
2022-10-22T14:47:52.067Z,100724.97
2022-10-22T14:50:19.120Z,100726.69
2022-10-22T14:52:45.699Z,100683.25
2022-10-22T14:55:13.936Z,100702.13
2022-10-22T14:57:41.012Z,100735.25
2022-10-22T15:00:10.726Z,100731.50
2022-10-22T15:02:37.179Z,100712.84
2022-10-22T15:05:04.507Z,100717.78
2022-10-22T15:07:30.947Z,100720.25
2022-10-22T15:09:57.416Z,100692.66
2022-10-22T15:12:23.870Z,100708.69
2022-10-22T15:14:50.717Z,100688.25
2022-10-22T15:17:18.202Z,100721.59
2022-10-22T15:19:44.790Z,100721.44
2022-10-22T15:22:12.160Z,100720.31
2022-10-22T15:24:39.370Z,100726.53
2022-10-22T15:27:05.897Z,100715.63
2022-10-22T15:29:32.805Z,100728.19
2022-10-22T15:32:00.451Z,100731.66
2022-10-22T15:34:32.676Z,100730.41
2022-10-22T15:37:00.848Z,100731.38
2022-10-22T15:39:27.595Z,100726.06
2022-10-22T15:41:54.682Z,100728.47
2022-10-22T15:44:24.088Z,100731.06
2022-10-22T15:46:51.513Z,100714.13
2022-10-22T15:49:18.860Z,100742.38
2022-10-22T15:51:45.380Z,100715.47
2022-10-22T15:54:17.421Z,100741.13
2022-10-22T15:56:44.402Z,100736.97
2022-10-22T15:59:15.326Z,100738.44
2022-10-22T16:01:42.007Z,100750.72
2022-10-22T16:04:08.779Z,100737.41
2022-10-22T16:06:41.505Z,100744.81
2022-10-22T16:09:13.334Z,100726.34
2022-10-22T16:11:40.443Z,100735.06
2022-10-22T16:14:07.474Z,100755.88
2022-10-22T16:16:36.018Z,100752.38
2022-10-22T16:19:02.794Z,100752.50
2022-10-22T16:21:29.359Z,100725.56
2022-10-22T16:23:55.805Z,100750.59
2022-10-22T16:26:22.269Z,100711.50
2022-10-22T16:28:48.985Z,100764.13
2022-10-22T16:31:18.055Z,100761.81
2022-10-22T16:33:47.952Z,100763.19
2022-10-22T16:36:18.723Z,100759.13
2022-10-22T16:38:45.999Z,100766.19
2022-10-22T16:41:14.119Z,100770.88
2022-10-22T16:43:42.363Z,100759.13
2022-10-22T16:46:09.166Z,100772.25
2022-10-22T16:48:37.787Z,100729.59
2022-10-22T16:51:09.563Z,100775.94
2022-10-22T16:53:36.528Z,100778.09
2022-10-22T16:56:03.611Z,100775.56
2022-10-22T16:58:30.234Z,100772.09
2022-10-22T17:00:56.918Z,100759.91
2022-10-22T17:03:25.975Z,100737.56
2022-10-22T17:05:54.197Z,100761.75
2022-10-22T17:08:20.665Z,100784.66
2022-10-22T17:10:47.181Z,100765.16
2022-10-22T17:13:13.643Z,100749.00
2022-10-22T17:15:40.645Z,100788.28
2022-10-22T17:18:07.151Z,100763.88
2022-10-22T17:20:33.594Z,100733.31
2022-10-22T17:23:00.129Z,100753.81
2022-10-22T17:25:36.722Z,100793.72
2022-10-22T17:28:03.233Z,100758.19
2022-10-22T17:30:30.332Z,100760.19
2022-10-22T17:32:56.856Z,100795.19
2022-10-22T17:35:23.368Z,100796.78
2022-10-22T17:37:49.983Z,100795.06
2022-10-22T17:40:16.631Z,100805.31
2022-10-22T17:42:45.358Z,100804.78
2022-10-22T17:45:11.886Z,100776.31
2022-10-22T17:47:38.389Z,100813.78
2022-10-22T17:50:05.234Z,100818.44
2022-10-22T17:52:32.110Z,100821.81
2022-10-22T17:54:58.669Z,100816.97
2022-10-22T17:57:25.307Z,100809.38
2022-10-22T17:59:51.762Z,100809.97
2022-10-22T18:02:18.474Z,100818.53
2022-10-22T18:04:45.292Z,100784.75
2022-10-22T18:07:11.951Z,100815.78
2022-10-22T18:09:39.148Z,100814.00
2022-10-22T18:12:06.163Z,100787.22
2022-10-22T18:14:32.592Z,100787.44
2022-10-22T18:17:01.842Z,100804.13
2022-10-22T18:19:28.370Z,100776.81
2022-10-22T18:21:55.156Z,100818.25
2022-10-22T18:24:21.923Z,100828.31
2022-10-22T18:26:48.420Z,100822.06
2022-10-22T18:29:17.144Z,100829.78
2022-10-22T18:31:44.217Z,100828.31
2022-10-22T18:34:10.974Z,100822.94
2022-10-22T18:36:37.643Z,100793.56
2022-10-22T18:39:04.708Z,100818.59
2022-10-22T18:41:32.409Z,100793.78
2022-10-22T18:44:05.035Z,100821.63
2022-10-22T18:46:38.315Z,100822.03
2022-10-22T18:49:06.893Z,100826.16
2022-10-22T18:51:34.664Z,100828.91
2022-10-22T18:54:05.988Z,100801.06
2022-10-22T18:56:40.045Z,100811.06
2022-10-22T18:59:06.636Z,100814.00
2022-10-22T19:01:35.405Z,100801.00
2022-10-22T19:04:02.042Z,100824.09
2022-10-22T19:06:34.554Z,100816.06
2022-10-22T19:09:04.139Z,100795.63
2022-10-22T19:11:31.235Z,100825.84
2022-10-22T19:13:58.274Z,100793.66
2022-10-22T19:16:24.741Z,100803.03
2022-10-22T19:19:00.555Z,100806.25
2022-10-22T19:21:27.620Z,100816.44
2022-10-22T19:23:58.309Z,100807.47
2022-10-22T19:26:26.573Z,100807.72
2022-10-22T19:28:54.476Z,100792.25
2022-10-22T19:31:23.873Z,100797.69
2022-10-22T19:33:51.638Z,100798.31
2022-10-22T19:36:19.500Z,100814.44
2022-10-22T19:38:47.980Z,100825.69
2022-10-22T19:41:16.786Z,100818.81
2022-10-22T19:43:44.631Z,100815.00
2022-10-22T19:46:11.829Z,100803.28
2022-10-22T19:48:38.647Z,100779.72
2022-10-22T19:51:09.828Z,100792.66
2022-10-22T19:53:38.372Z,100816.06
2022-10-22T19:56:07.004Z,100805.94
2022-10-22T19:58:33.689Z,100771.81
2022-10-22T20:01:14.317Z,100810.13
2022-10-22T20:03:41.225Z,100779.06
2022-10-22T20:06:12.382Z,100812.00
2022-10-22T20:08:38.922Z,100813.16
2022-10-22T20:11:13.495Z,100798.69
2022-10-22T20:16:14.868Z,100819.84
2022-10-22T20:18:41.378Z,100809.91
2022-10-22T20:21:08.957Z,100787.25
2022-10-22T20:23:35.529Z,100765.34
2022-10-22T20:26:02.002Z,100777.47
2022-10-22T20:28:28.468Z,100782.50
2022-10-22T20:30:55.127Z,100708.19
2022-10-22T20:33:21.591Z,100807.88
2022-10-22T20:36:01.286Z,100820.84
2022-10-22T20:38:28.379Z,100816.25
2022-10-22T20:41:09.016Z,100794.84
2022-10-22T20:43:35.507Z,100822.56
2022-10-22T20:46:02.095Z,100791.41
2022-10-22T20:48:31.270Z,100820.03
2022-10-22T20:50:59.047Z,100812.84
2022-10-22T20:53:25.795Z,100798.09
2022-10-22T20:55:55.030Z,100804.00
2022-10-22T20:58:24.528Z,100783.88
2022-10-22T21:00:56.991Z,100773.34
2022-10-22T21:03:23.910Z,100811.34
2022-10-22T21:05:50.604Z,100799.56
2022-10-22T21:08:17.613Z,100773.50
2022-10-22T21:10:49.043Z,100819.16
2022-10-22T21:13:16.901Z,100800.78
2022-10-22T21:15:43.431Z,100823.34
2022-10-22T21:18:09.966Z,100788.75
2022-10-22T21:20:38.821Z,100797.00
2022-10-22T21:23:05.350Z,100806.78
2022-10-22T21:25:31.902Z,100766.28
2022-10-22T21:27:58.370Z,100818.19
2022-10-22T21:30:24.862Z,100781.66
2022-10-22T21:32:51.720Z,100827.38
2022-10-22T21:35:18.247Z,100776.91
2022-10-22T21:37:44.927Z,100806.34
2022-10-22T21:40:11.919Z,100789.72
2022-10-22T21:42:38.386Z,100795.03
2022-10-22T21:45:10.490Z,100813.56
2022-10-22T21:47:39.956Z,100782.03
2022-10-22T21:50:07.029Z,100814.03
2022-10-22T21:52:33.488Z,100806.50
2022-10-22T21:54:59.933Z,100813.75
2022-10-22T21:57:26.687Z,100807.13
2022-10-22T21:59:53.122Z,100812.69
2022-10-22T22:04:54.705Z,100783.81
2022-10-22T22:07:22.189Z,100772.38
2022-10-22T22:09:51.974Z,100821.28
2022-10-22T22:12:18.935Z,100821.28
2022-10-22T22:14:45.419Z,100806.72
2022-10-22T22:17:12.235Z,100750.88
2022-10-22T22:19:38.946Z,100798.47
2022-10-22T22:22:05.530Z,100807.50
2022-10-22T22:24:32.104Z,100810.19
2022-10-22T22:26:58.583Z,100787.97
2022-10-22T22:29:25.184Z,100829.28
2022-10-22T22:31:51.653Z,100816.06
2022-10-22T22:34:18.138Z,100811.50
2022-10-22T22:36:46.207Z,100809.16
2022-10-22T22:39:15.050Z,100810.84
2022-10-22T22:41:42.555Z,100806.63
2022-10-22T22:44:09.122Z,100781.56
2022-10-22T22:46:35.747Z,100769.97
2022-10-22T22:49:02.264Z,100809.97
2022-10-22T22:51:28.739Z,100764.66
2022-10-22T22:53:57.747Z,100808.03
2022-10-22T22:56:25.723Z,100785.38
2022-10-22T22:58:52.518Z,100792.25
2022-10-22T23:01:32.631Z,100793.16
2022-10-22T23:04:01.374Z,100793.53
2022-10-22T23:06:31.178Z,100777.03
2022-10-22T23:08:57.814Z,100795.78
2022-10-22T23:11:25.655Z,100789.69
2022-10-22T23:14:01.582Z,100784.72
2022-10-22T23:16:30.889Z,100763.53
2022-10-22T23:18:58.471Z,100783.69
2022-10-22T23:21:27.515Z,100780.84
2022-10-22T23:23:56.504Z,100775.34
2022-10-22T23:26:26.811Z,100770.97
2022-10-22T23:28:53.456Z,100772.66
2022-10-22T23:31:21.660Z,100768.63
2022-10-22T23:33:48.723Z,100776.66
2022-10-22T23:36:15.458Z,100769.75
2022-10-22T23:38:42.218Z,100754.56
2022-10-22T23:41:08.714Z,100747.13
2022-10-22T23:43:36.189Z,100746.34
2022-10-22T23:46:04.117Z,100758.47
2022-10-22T23:48:30.643Z,100697.47
2022-10-22T23:50:57.107Z,100734.69
2022-10-22T23:53:23.705Z,100728.63
2022-10-22T23:55:50.203Z,100701.31
2022-10-22T23:58:17.250Z,100741.19
